createdAt,value
2023-04-21T00:02:03.824Z,7.75
2023-04-21T00:04:34.020Z,6.93
2023-04-21T00:07:06.803Z,7.28
2023-04-21T00:09:36.937Z,6.82
2023-04-21T00:12:07.440Z,7.22
2023-04-21T00:14:37.568Z,7.10
2023-04-21T00:17:07.640Z,7.45
2023-04-21T00:19:37.926Z,7.18
2023-04-21T00:22:14.945Z,7.45
2023-04-21T00:24:45.004Z,8.00
2023-04-21T00:27:15.799Z,7.97
2023-04-21T00:29:46.055Z,7.35
2023-04-21T00:32:16.465Z,7.72
2023-04-21T00:34:46.527Z,7.53
2023-04-21T00:37:19.222Z,7.78
2023-04-21T00:39:49.227Z,8.32
2023-04-21T00:42:19.636Z,8.15
2023-04-21T00:44:49.680Z,9.13
2023-04-21T00:47:19.802Z,8.27
2023-04-21T00:49:50.208Z,8.48
2023-04-21T00:52:22.975Z,8.80
2023-04-21T00:54:53.526Z,9.05
2023-04-21T00:57:24.211Z,9.15
2023-04-21T00:59:54.399Z,8.68
2023-04-21T01:02:25.911Z,8.82
2023-04-21T01:04:55.999Z,9.75
2023-04-21T01:07:28.757Z,10.02
2023-04-21T01:09:59.969Z,9.73
2023-04-21T01:12:29.948Z,10.05
2023-04-21T01:15:00.290Z,10.13
2023-04-21T01:17:31.472Z,9.35
2023-04-21T01:20:04.934Z,9.93
2023-04-21T01:22:40.333Z,9.85
2023-04-21T01:25:11.581Z,9.57
2023-04-21T01:27:41.612Z,9.85
2023-04-21T01:30:13.154Z,9.85
2023-04-21T01:32:43.282Z,10.43
2023-04-21T01:35:13.800Z,9.25
2023-04-21T01:37:46.419Z,9.45
2023-04-21T01:40:16.700Z,9.60
2023-04-21T01:42:48.188Z,10.18
2023-04-21T01:45:18.212Z,10.30
2023-04-21T01:47:48.203Z,10.60
2023-04-21T01:50:18.393Z,9.57
2023-04-21T01:52:50.988Z,9.88
2023-04-21T01:55:21.486Z,10.23
2023-04-21T01:57:51.450Z,10.30
2023-04-21T02:00:22.161Z,9.60
2023-04-21T02:02:52.273Z,10.38
2023-04-21T02:05:22.473Z,9.75
2023-04-21T02:07:55.021Z,9.80
2023-04-21T02:10:25.239Z,10.77
2023-04-21T02:12:55.213Z,10.52
2023-04-21T02:15:25.178Z,9.70
2023-04-21T02:17:55.211Z,10.70
2023-04-21T02:20:25.294Z,11.35
2023-04-21T02:22:57.851Z,9.77
2023-04-21T02:25:28.300Z,11.00
2023-04-21T02:27:58.245Z,10.55
2023-04-21T02:30:28.251Z,10.77
2023-04-21T02:32:58.477Z,11.13
2023-04-21T02:35:28.608Z,11.18
2023-04-21T02:38:06.551Z,11.20
2023-04-21T02:40:36.594Z,10.98
2023-04-21T02:43:06.542Z,11.63
2023-04-21T02:45:36.550Z,11.13
2023-04-21T02:48:06.894Z,11.90
2023-04-21T02:50:37.048Z,11.27
2023-04-21T02:53:10.353Z,10.57
2023-04-21T02:55:40.320Z,11.68
2023-04-21T02:58:10.414Z,11.13
2023-04-21T03:00:40.644Z,10.63
2023-04-21T03:03:10.795Z,10.80
2023-04-21T03:05:40.919Z,11.90
2023-04-21T03:08:13.461Z,10.98
2023-04-21T03:10:43.670Z,10.70
2023-04-21T03:13:13.618Z,10.52
2023-04-21T03:15:43.568Z,12.48
2023-04-21T03:18:13.980Z,11.15
2023-04-21T03:20:44.158Z,11.68
2023-04-21T03:23:16.916Z,11.93
2023-04-21T03:25:46.911Z,11.15
2023-04-21T03:28:17.164Z,12.20
2023-04-21T03:30:47.129Z,12.63
2023-04-21T03:33:17.173Z,12.02
2023-04-21T03:35:47.170Z,11.88
2023-04-21T03:38:19.670Z,11.70
2023-04-21T03:40:49.614Z,11.38
2023-04-21T03:43:19.584Z,11.90
2023-04-21T03:45:49.590Z,12.60
2023-04-21T03:48:19.633Z,12.07
2023-04-21T03:50:49.639Z,12.27
2023-04-21T03:53:22.243Z,11.75
2023-04-21T03:55:53.475Z,11.55
2023-04-21T03:58:23.461Z,12.63
2023-04-21T04:00:53.466Z,13.40
2023-04-21T04:03:23.881Z,12.98
2023-04-21T04:05:54.002Z,12.85
2023-04-21T04:08:26.607Z,12.30
2023-04-21T04:10:56.865Z,12.88
2023-04-21T04:13:27.801Z,12.18
2023-04-21T04:15:58.076Z,12.30
2023-04-21T04:18:28.302Z,12.85
2023-04-21T04:20:58.302Z,11.90
2023-04-21T04:23:30.887Z,13.00
2023-04-21T04:26:01.789Z,12.80
2023-04-21T04:28:33.994Z,13.27
2023-04-21T04:31:04.219Z,12.52
2023-04-21T04:33:34.280Z,12.40
2023-04-21T04:36:04.332Z,13.15
2023-04-21T04:38:37.935Z,12.60
2023-04-21T04:41:09.186Z,12.52
2023-04-21T04:43:39.702Z,13.00
2023-04-21T04:46:13.188Z,13.55
2023-04-21T04:48:43.425Z,13.13
2023-04-21T04:51:13.759Z,13.27
2023-04-21T04:53:46.423Z,13.23
2023-04-21T04:56:16.406Z,12.00
2023-04-21T04:58:46.684Z,11.52
2023-04-21T05:01:17.439Z,12.95
2023-04-21T05:03:48.742Z,12.93
2023-04-21T05:06:18.784Z,12.73
2023-04-21T05:08:51.449Z,13.85
2023-04-21T05:11:21.597Z,12.93
2023-04-21T05:13:51.584Z,12.68
2023-04-21T05:16:21.634Z,13.65
2023-04-21T05:18:54.261Z,13.63
2023-04-21T05:21:29.102Z,13.35
2023-04-21T05:24:02.623Z,12.38
2023-04-21T05:26:33.018Z,13.25
2023-04-21T05:29:03.002Z,12.32
2023-04-21T05:31:33.289Z,12.57
2023-04-21T05:34:03.412Z,11.85
2023-04-21T05:36:33.443Z,12.18
2023-04-21T05:39:06.556Z,12.75
2023-04-21T05:41:36.506Z,13.02
2023-04-21T05:44:06.626Z,11.00
2023-04-21T05:46:36.752Z,11.95
2023-04-21T05:49:06.886Z,11.52
2023-04-21T05:51:37.121Z,12.15
2023-04-21T05:54:09.760Z,11.15
2023-04-21T05:56:39.788Z,12.30
2023-04-21T05:59:09.722Z,13.00
2023-04-21T06:01:39.712Z,11.38
2023-04-21T06:04:09.958Z,12.95
2023-04-21T06:06:40.155Z,11.57
2023-04-21T06:09:15.783Z,12.60
2023-04-21T06:11:45.853Z,12.00
2023-04-21T06:14:15.989Z,11.40
2023-04-21T06:16:46.359Z,11.57
2023-04-21T06:19:16.666Z,11.20
2023-04-21T06:21:46.906Z,11.43
2023-04-21T06:24:25.303Z,11.65
2023-04-21T06:26:56.459Z,11.85
2023-04-21T06:29:26.653Z,11.77
2023-04-21T06:31:56.855Z,11.18
2023-04-21T06:34:27.116Z,8.30
2023-04-21T06:36:57.215Z,8.23
2023-04-21T06:39:30.137Z,9.50
2023-04-21T06:42:01.434Z,10.18
2023-04-21T06:44:32.569Z,10.88
2023-04-21T06:47:02.995Z,5.85
2023-04-21T06:49:34.377Z,10.57
2023-04-21T06:52:05.003Z,9.10
2023-04-21T06:54:38.596Z,9.35
2023-04-21T06:57:08.901Z,6.22
2023-04-21T06:59:39.147Z,11.02
2023-04-21T07:02:09.742Z,9.65
2023-04-21T07:04:39.897Z,9.30
2023-04-21T07:07:10.060Z,10.35
2023-04-21T07:09:42.937Z,9.93
2023-04-21T07:12:13.021Z,8.18
2023-04-21T07:14:43.407Z,9.82
2023-04-21T07:17:13.710Z,9.35
2023-04-21T07:19:43.996Z,9.38
2023-04-21T07:22:14.151Z,9.38
2023-04-21T07:24:49.122Z,9.45
2023-04-21T07:27:19.611Z,9.98
2023-04-21T07:29:49.805Z,6.25
2023-04-21T07:32:20.056Z,8.18
2023-04-21T07:34:50.173Z,9.38
2023-04-21T07:37:22.841Z,8.45
2023-04-21T07:39:56.394Z,7.55
2023-04-21T07:42:27.079Z,8.95
2023-04-21T07:44:57.832Z,9.88
2023-04-21T07:47:28.089Z,9.23
2023-04-21T07:49:58.685Z,8.30
2023-04-21T07:52:29.079Z,9.65
2023-04-21T07:55:02.067Z,10.32
2023-04-21T07:57:34.719Z,7.82
2023-04-21T08:00:04.920Z,10.88
2023-04-21T08:02:35.500Z,9.43
2023-04-21T08:05:05.773Z,7.63
2023-04-21T08:07:36.320Z,9.20
2023-04-21T08:10:11.373Z,9.32
2023-04-21T08:12:41.718Z,8.52
2023-04-21T08:15:12.792Z,9.73
2023-04-21T08:17:43.026Z,9.30
2023-04-21T08:20:14.718Z,9.70
2023-04-21T08:22:47.293Z,5.85
2023-04-21T08:25:20.987Z,6.65
2023-04-21T08:27:51.311Z,7.95
2023-04-21T08:30:22.004Z,10.32
2023-04-21T08:32:52.378Z,6.57
2023-04-21T08:35:22.779Z,6.30
2023-04-21T08:37:53.537Z,9.38
2023-04-21T08:40:36.127Z,7.55
2023-04-21T08:43:07.226Z,7.15
2023-04-21T08:45:38.007Z,7.50
2023-04-21T08:48:10.099Z,7.00
2023-04-21T08:50:41.747Z,9.65
2023-04-21T08:53:12.033Z,8.95
2023-04-21T08:55:49.286Z,9.60
2023-04-21T08:58:22.928Z,7.90
2023-04-21T09:00:53.298Z,9.23
2023-04-21T09:03:26.589Z,9.07
2023-04-21T09:06:05.755Z,7.93
2023-04-21T09:08:38.290Z,7.78
2023-04-21T09:11:11.326Z,8.98
2023-04-21T09:13:41.639Z,8.77
2023-04-21T09:16:21.740Z,8.82
2023-04-21T09:18:53.578Z,8.43
2023-04-21T09:21:23.926Z,7.95
2023-04-21T09:23:56.299Z,6.03
2023-04-21T09:26:29.883Z,8.90
2023-04-21T09:29:00.389Z,9.05
2023-04-21T09:31:31.138Z,7.57
2023-04-21T09:34:01.772Z,8.13
2023-04-21T09:36:33.431Z,8.23
2023-04-21T09:41:42.003Z,8.43
2023-04-21T09:44:12.163Z,8.00
2023-04-21T09:46:47.221Z,8.27
2023-04-21T09:49:20.739Z,8.27
2023-04-21T09:54:30.539Z,8.60
2023-04-21T09:57:07.180Z,8.68
2023-04-21T09:59:40.718Z,8.98
2023-04-21T10:02:13.184Z,8.30
2023-04-21T10:04:46.037Z,7.65
2023-04-21T10:07:16.595Z,8.45
2023-04-21T10:09:53.759Z,8.80
2023-04-21T10:12:28.035Z,8.25
2023-04-21T10:14:59.278Z,4.93
2023-04-21T10:17:30.501Z,7.28
2023-04-21T10:20:01.624Z,7.72
2023-04-21T10:22:33.786Z,7.50
2023-04-21T10:25:06.534Z,7.18
2023-04-21T10:27:43.222Z,7.97
2023-04-21T10:30:23.142Z,7.72
2023-04-21T10:33:06.731Z,7.47
2023-04-21T10:36:15.916Z,8.05
2023-04-21T10:38:47.228Z,7.03
2023-04-21T10:41:30.952Z,7.85
2023-04-21T10:44:07.097Z,8.35
2023-04-21T10:46:39.697Z,8.48
2023-04-21T10:49:11.698Z,7.47
2023-04-21T10:52:11.102Z,9.07
2023-04-21T10:54:47.126Z,7.30
2023-04-21T10:57:21.914Z,7.78
2023-04-21T10:59:54.637Z,7.43
2023-04-21T11:02:24.955Z,7.63
2023-04-21T11:04:56.770Z,7.85
2023-04-21T11:07:27.845Z,6.03
2023-04-21T11:10:03.276Z,8.00
2023-04-21T11:12:35.448Z,7.80
2023-04-21T11:15:13.600Z,8.20
2023-04-21T11:17:43.987Z,8.00
2023-04-21T11:20:14.620Z,8.30
2023-04-21T11:22:45.165Z,7.57
2023-04-21T11:25:21.277Z,7.20
2023-04-21T11:28:00.308Z,7.43
2023-04-21T11:30:38.298Z,8.27
2023-04-21T11:33:08.808Z,8.80
2023-04-21T11:35:43.697Z,7.32
2023-04-21T11:38:14.999Z,6.85
2023-04-21T11:40:50.151Z,3.97
2023-04-21T11:43:20.477Z,6.10
2023-04-21T11:45:54.961Z,7.28
2023-04-21T11:50:55.198Z,7.10
2023-04-21T11:53:25.643Z,3.60
2023-04-21T11:55:57.219Z,7.10
2023-04-21T11:58:27.686Z,6.78
2023-04-21T12:01:00.685Z,7.63
2023-04-21T12:03:31.120Z,6.68
2023-04-21T12:06:01.604Z,5.97
2023-04-21T12:08:34.176Z,6.53
2023-04-21T12:11:06.073Z,5.40
2023-04-21T12:13:36.458Z,7.20
2023-04-21T12:16:10.399Z,6.20
2023-04-21T12:18:41.059Z,6.32
2023-04-21T12:21:11.417Z,6.20
2023-04-21T12:23:41.554Z,5.18
2023-04-21T12:26:12.131Z,5.13
2023-04-21T12:28:42.826Z,5.72
2023-04-21T12:31:16.087Z,5.95
2023-04-21T12:33:46.435Z,6.10
2023-04-21T12:36:16.955Z,5.20
2023-04-21T12:38:47.431Z,6.07
2023-04-21T12:41:17.675Z,4.53
2023-04-21T12:43:47.818Z,4.38
2023-04-21T12:46:20.674Z,5.40
2023-04-21T12:48:52.589Z,5.85
2023-04-21T12:51:23.082Z,5.95
2023-04-21T12:53:53.509Z,6.47
2023-04-21T12:56:23.970Z,4.97
2023-04-21T12:58:54.295Z,5.80
2023-04-21T13:01:28.278Z,5.25
2023-04-21T13:03:58.567Z,5.95
2023-04-21T13:06:29.150Z,3.08
2023-04-21T13:08:59.348Z,6.80
2023-04-21T13:11:29.683Z,6.45
2023-04-21T13:13:59.859Z,6.82
2023-04-21T13:16:32.958Z,6.00
2023-04-21T13:19:03.203Z,5.57
2023-04-21T13:21:34.635Z,4.55
2023-04-21T13:24:05.155Z,5.70
2023-04-21T13:26:36.403Z,5.20
2023-04-21T13:29:07.429Z,2.63
2023-04-21T13:31:40.697Z,5.55
2023-04-21T13:34:11.221Z,5.22
2023-04-21T13:36:41.422Z,5.55
2023-04-21T13:39:13.069Z,6.00
2023-04-21T13:41:43.231Z,6.20
2023-04-21T13:44:13.332Z,4.30
2023-04-21T13:46:46.219Z,3.92
2023-04-21T13:49:16.606Z,4.13
2023-04-21T13:51:46.643Z,5.72
2023-04-21T13:54:16.661Z,5.57
2023-04-21T13:56:46.777Z,5.57
2023-04-21T13:59:17.641Z,5.25
2023-04-21T14:01:50.331Z,5.75
2023-04-21T14:04:21.604Z,6.10
2023-04-21T14:06:53.037Z,5.28
2023-04-21T14:09:23.192Z,5.88
2023-04-21T14:11:54.122Z,5.53
2023-04-21T14:14:35.514Z,4.28
2023-04-21T14:17:10.461Z,5.53
2023-04-21T14:19:40.660Z,5.55
2023-04-21T14:22:10.652Z,5.57
2023-04-21T14:24:40.706Z,5.35
2023-04-21T14:27:10.862Z,5.45
2023-04-21T14:29:40.954Z,5.43
2023-04-21T14:32:13.638Z,5.80
2023-04-21T14:34:43.695Z,2.88
2023-04-21T14:37:13.723Z,4.93
2023-04-21T14:39:43.688Z,5.70
2023-04-21T14:42:13.707Z,5.45
2023-04-21T14:44:43.919Z,5.10
2023-04-21T14:47:17.355Z,4.75
2023-04-21T14:49:50.002Z,4.53
2023-04-21T14:52:20.081Z,5.18
2023-04-21T14:54:50.290Z,4.70
2023-04-21T14:57:21.911Z,5.57
2023-04-21T14:59:54.061Z,2.83
2023-04-21T15:02:26.866Z,3.28
2023-04-21T15:04:57.433Z,5.70
2023-04-21T15:07:27.697Z,6.68
2023-04-21T15:09:57.726Z,3.83
2023-04-21T15:12:28.159Z,3.85
2023-04-21T15:14:58.229Z,3.65
2023-04-21T15:17:30.939Z,5.55
2023-04-21T15:20:00.981Z,3.70
2023-04-21T15:22:31.518Z,4.25
2023-04-21T15:25:01.567Z,3.40
2023-04-21T15:27:31.644Z,5.78
2023-04-21T15:30:04.039Z,5.43
2023-04-21T15:32:36.967Z,4.68
2023-04-21T15:35:08.694Z,4.53
2023-04-21T15:37:38.932Z,4.55
2023-04-21T15:40:11.954Z,5.10
2023-04-21T15:42:42.251Z,3.65
2023-04-21T15:45:13.636Z,5.63
2023-04-21T15:47:46.328Z,5.20
2023-04-21T15:50:16.464Z,3.83
2023-04-21T15:52:46.946Z,5.43
2023-04-21T15:55:16.997Z,5.22
2023-04-21T15:57:48.586Z,5.22
2023-04-21T16:00:19.814Z,5.22
2023-04-21T16:02:52.898Z,5.70
2023-04-21T16:05:27.621Z,5.35
2023-04-21T16:07:59.099Z,4.75
2023-04-21T16:10:29.244Z,4.70
2023-04-21T16:12:59.502Z,3.78
2023-04-21T16:15:30.181Z,5.20
2023-04-21T16:18:06.700Z,3.47
2023-04-21T16:20:37.082Z,3.45
2023-04-21T16:23:07.550Z,4.88
2023-04-21T16:25:37.856Z,4.35
2023-04-21T16:28:09.446Z,5.03
2023-04-21T16:30:43.692Z,4.90
2023-04-21T16:35:47.080Z,4.68
2023-04-21T16:38:17.444Z,4.63
2023-04-21T16:40:48.128Z,4.88
2023-04-21T16:43:18.458Z,4.75
2023-04-21T16:45:48.580Z,5.18
2023-04-21T16:48:21.534Z,4.53
2023-04-21T16:50:53.961Z,5.20
2023-04-21T16:53:25.656Z,4.90
2023-04-21T16:55:56.196Z,4.82
2023-04-21T16:58:26.620Z,4.43
2023-04-21T17:00:57.751Z,4.72
2023-04-21T17:03:30.800Z,4.47
2023-04-21T17:06:00.860Z,4.80
2023-04-21T17:08:31.025Z,4.75
2023-04-21T17:11:01.050Z,5.10
2023-04-21T17:13:31.315Z,4.57
2023-04-21T17:16:01.593Z,4.03
2023-04-21T17:18:34.593Z,4.50
2023-04-21T17:21:06.319Z,5.05
2023-04-21T17:23:37.020Z,4.82
2023-04-21T17:26:08.175Z,4.60
2023-04-21T17:28:39.078Z,4.25
2023-04-21T17:31:15.730Z,4.80
2023-04-21T17:33:49.102Z,4.13
2023-04-21T17:36:19.316Z,4.78
2023-04-21T17:38:49.381Z,4.15
2023-04-21T17:41:20.169Z,4.50
2023-04-21T17:43:50.364Z,4.45
2023-04-21T17:46:21.722Z,47.65
2023-04-21T17:48:57.042Z,44.72
2023-04-21T17:51:28.873Z,8.87
2023-04-21T17:53:58.890Z,4.78
2023-04-21T17:56:28.883Z,4.93
2023-04-21T17:58:59.349Z,4.57
2023-04-21T18:01:30.458Z,4.82
2023-04-21T18:04:04.645Z,4.35
2023-04-21T18:06:35.090Z,4.38
2023-04-21T18:09:05.960Z,5.78
2023-04-21T18:11:36.163Z,5.88
2023-04-21T18:14:06.291Z,7.15
2023-04-21T18:16:36.474Z,5.35
2023-04-21T18:19:09.292Z,18.63
2023-04-21T18:21:39.677Z,16.45
2023-04-21T18:24:10.612Z,16.90
2023-04-21T18:26:41.135Z,32.85
2023-04-21T18:29:11.493Z,15.05
2023-04-21T18:31:42.110Z,6.40
2023-04-21T18:34:15.378Z,6.95
2023-04-21T18:36:45.773Z,5.35
2023-04-21T18:39:17.134Z,5.30
2023-04-21T18:41:48.605Z,4.88
2023-04-21T18:44:19.125Z,5.50
2023-04-21T18:46:49.505Z,4.90
2023-04-21T18:49:22.289Z,5.18
2023-04-21T18:51:52.320Z,4.63
2023-04-21T18:54:22.398Z,4.93
2023-04-21T18:56:52.486Z,5.07
2023-04-21T18:59:23.760Z,5.20
2023-04-21T19:01:54.276Z,5.50
2023-04-21T19:04:27.102Z,4.55
2023-04-21T19:06:57.260Z,4.88
2023-04-21T19:09:28.210Z,4.85
2023-04-21T19:11:58.370Z,5.25
2023-04-21T19:14:34.636Z,5.50
2023-04-21T19:17:09.682Z,5.40
2023-04-21T19:19:42.230Z,22.83
2023-04-21T19:22:12.254Z,20.52
2023-04-21T19:24:42.224Z,21.73
2023-04-21T19:27:12.224Z,6.85
2023-04-21T19:29:42.711Z,6.38
2023-04-21T19:32:12.758Z,13.85
2023-04-21T19:34:45.311Z,12.82
2023-04-21T19:37:15.731Z,6.57
2023-04-21T19:39:45.714Z,15.90
2023-04-21T19:42:15.672Z,7.05
2023-04-21T19:44:45.623Z,6.05
2023-04-21T19:47:15.795Z,7.82
2023-04-21T19:49:48.582Z,8.02
2023-04-21T19:52:18.619Z,24.33
2023-04-21T19:54:48.576Z,11.68
2023-04-21T19:57:18.623Z,16.75
2023-04-21T19:59:49.209Z,18.80
2023-04-21T20:02:19.654Z,12.65
2023-04-21T20:04:53.802Z,14.63
2023-04-21T20:07:24.095Z,18.25
2023-04-21T20:09:54.313Z,21.70
2023-04-21T20:12:24.399Z,22.05
2023-04-21T20:14:54.392Z,37.08
2023-04-21T20:17:24.523Z,22.42
2023-04-21T20:19:57.204Z,13.35
2023-04-21T20:22:27.259Z,13.50
2023-04-21T20:24:58.106Z,36.35
2023-04-21T20:27:28.473Z,86.22
2023-04-21T20:29:58.425Z,89.25
2023-04-21T20:32:28.624Z,44.95
2023-04-21T20:35:01.356Z,39.92
2023-04-21T20:37:33.627Z,20.98
2023-04-21T20:40:08.419Z,12.75
2023-04-21T20:42:38.582Z,14.90
2023-04-21T20:45:11.202Z,26.95
2023-04-21T20:47:41.867Z,9.38
2023-04-21T20:50:14.595Z,14.10
2023-04-21T20:52:44.599Z,17.00
2023-04-21T20:55:14.618Z,13.82
2023-04-21T20:57:44.643Z,11.55
2023-04-21T21:00:15.831Z,35.13
2023-04-21T21:02:45.957Z,10.50
2023-04-21T21:05:18.786Z,9.75
2023-04-21T21:07:48.770Z,9.02
2023-04-21T21:10:18.792Z,8.52
2023-04-21T21:12:48.754Z,10.57
2023-04-21T21:15:18.939Z,9.68
2023-04-21T21:17:48.988Z,7.30
2023-04-21T21:20:21.807Z,7.80
2023-04-21T21:22:51.800Z,8.68
2023-04-21T21:25:21.801Z,7.57
2023-04-21T21:27:51.773Z,7.40
2023-04-21T21:30:21.953Z,6.50
2023-04-21T21:32:53.980Z,7.75
2023-04-21T21:35:26.796Z,9.82
2023-04-21T21:37:57.138Z,8.55
2023-04-21T21:40:27.111Z,9.23
2023-04-21T21:42:57.037Z,7.50
2023-04-21T21:45:27.040Z,8.25
2023-04-21T21:47:57.072Z,7.72
2023-04-21T21:50:29.672Z,7.20
2023-04-21T21:52:59.604Z,10.30
2023-04-21T21:55:30.596Z,10.27
2023-04-21T21:58:03.514Z,12.63
2023-04-21T22:00:33.742Z,10.32
2023-04-21T22:03:03.818Z,7.43
2023-04-21T22:05:36.572Z,7.10
2023-04-21T22:08:06.744Z,7.70
2023-04-21T22:10:37.202Z,8.57
2023-04-21T22:13:07.162Z,9.40
2023-04-21T22:15:37.465Z,8.02
2023-04-21T22:18:08.218Z,7.22
2023-04-21T22:20:41.165Z,7.57
2023-04-21T22:23:11.262Z,7.20
2023-04-21T22:25:41.459Z,6.70
2023-04-21T22:28:11.614Z,6.60
2023-04-21T22:30:41.632Z,6.72
2023-04-21T22:33:11.701Z,7.03
2023-04-21T22:35:44.269Z,6.93
2023-04-21T22:38:14.316Z,7.15
2023-04-21T22:40:44.304Z,8.02
2023-04-21T22:43:14.463Z,8.63
2023-04-21T22:45:47.187Z,9.43
2023-04-21T22:48:17.214Z,8.50
2023-04-21T22:50:49.754Z,8.85
2023-04-21T22:53:19.688Z,8.32
2023-04-21T22:55:49.737Z,8.85
2023-04-21T22:58:19.722Z,9.43
2023-04-21T23:00:49.811Z,8.68
2023-04-21T23:03:19.925Z,8.52
2023-04-21T23:05:52.773Z,8.60
2023-04-21T23:08:22.719Z,8.07
2023-04-21T23:10:52.856Z,7.80
2023-04-21T23:13:22.795Z,8.27
2023-04-21T23:15:52.748Z,7.70
2023-04-21T23:18:22.682Z,7.18
2023-04-21T23:20:56.064Z,7.65
2023-04-21T23:23:26.114Z,6.55
2023-04-21T23:25:56.128Z,6.60
2023-04-21T23:28:26.625Z,6.93
2023-04-21T23:30:56.667Z,7.97
2023-04-21T23:33:26.996Z,6.78
2023-04-21T23:35:59.540Z,8.10
2023-04-21T23:38:29.526Z,7.90
2023-04-21T23:40:59.538Z,8.18
2023-04-21T23:43:29.566Z,8.55
2023-04-21T23:45:59.624Z,8.50
2023-04-21T23:48:29.959Z,8.98
2023-04-21T23:51:03.378Z,8.40
2023-04-21T23:53:33.371Z,8.35
2023-04-21T23:56:03.339Z,8.73
2023-04-21T23:58:33.283Z,8.40
